createdAt,value
2019-04-10T00:01:12.699Z,15.9
2019-04-10T00:11:12.182Z,15.9
2019-04-10T00:21:11.328Z,15.9
2019-04-10T00:31:10.563Z,15.9
2019-04-10T00:41:10.174Z,15.9
2019-04-10T00:51:09.150Z,15.9
2019-04-10T01:01:08.406Z,15.9
2019-04-10T01:11:08.557Z,15.9
2019-04-10T01:21:06.830Z,15.9
2019-04-10T01:31:06.740Z,15.9
2019-04-10T01:41:05.720Z,15.9
2019-04-10T01:51:04.467Z,15.9
2019-04-10T02:01:03.929Z,15.9
2019-04-10T02:11:02.891Z,15.9
2019-04-10T02:21:03.240Z,15.9
2019-04-10T02:31:02.812Z,15.9
2019-04-10T02:41:01.622Z,15.9
2019-04-10T02:50:59.744Z,15.9
2019-04-10T03:00:59.101Z,15.9
2019-04-10T03:11:02.477Z,15.3
2019-04-10T03:20:58.249Z,15.2
2019-04-10T03:30:58.649Z,15.3
2019-04-10T03:40:55.803Z,15.3
2019-04-10T03:50:55.008Z,15.3
2019-04-10T04:00:54.309Z,15.3
2019-04-10T04:10:53.437Z,15.3
2019-04-10T04:20:52.971Z,15.3
2019-04-10T04:30:53.331Z,15.3
2019-04-10T04:40:51.438Z,15.2
2019-04-10T04:50:50.293Z,15.3
2019-04-10T05:00:50.789Z,15.2
2019-04-10T05:10:49.642Z,15.2
2019-04-10T05:20:50.365Z,15.2
2019-04-10T05:30:47.141Z,15.2
2019-04-10T05:40:46.449Z,14.4
2019-04-10T05:50:53.767Z,14.6
2019-04-10T06:00:45.068Z,14.5
2019-04-10T06:10:43.986Z,14.6
2019-04-10T06:20:43.190Z,14.6
2019-04-10T06:30:42.407Z,14.6
2019-04-10T06:40:41.938Z,14.7
2019-04-10T06:50:41.232Z,14.8
2019-04-10T07:00:41.011Z,14.8
2019-04-10T07:10:47.847Z,14.8
2019-04-10T07:20:38.458Z,14.9
2019-04-10T07:30:38.056Z,14.9
2019-04-10T07:40:36.978Z,15
2019-04-10T07:50:37.069Z,15
2019-04-10T08:00:36.546Z,15.1
2019-04-10T08:10:34.792Z,15.2
2019-04-10T08:20:34.711Z,15.3
2019-04-10T08:30:33.971Z,15.4
2019-04-10T08:40:32.192Z,15.6
2019-04-10T08:50:32.253Z,15.8
2019-04-10T09:00:30.582Z,15.9
2019-04-10T09:10:30.222Z,16.1
2019-04-10T09:20:29.005Z,16.3
2019-04-10T09:30:28.923Z,16.5
2019-04-10T09:40:27.943Z,16.8
2019-04-10T09:50:27.569Z,17.2
2019-04-10T10:00:25.846Z,17.6
2019-04-10T10:10:25.061Z,18
2019-04-10T10:20:24.288Z,18.6
2019-04-10T10:30:23.489Z,19.1
2019-04-10T10:40:23.426Z,19.6
2019-04-10T10:50:22.204Z,20.2
2019-04-10T11:00:21.127Z,20.7
2019-04-10T11:10:24.010Z,21.3
2019-04-10T11:21:24.668Z,21.8
2019-04-10T11:31:23.750Z,22.1
2019-04-10T11:43:34.127Z,22.4
2019-04-10T11:53:36.131Z,22.6
2019-04-10T12:03:34.382Z,22.8
2019-04-10T12:13:58.903Z,22.9
2019-04-10T12:23:58.852Z,23.1
2019-04-10T12:33:57.035Z,23.3
2019-04-10T12:43:56.964Z,23.6
2019-04-10T12:53:56.138Z,23.8
2019-04-10T13:03:55.681Z,24
2019-04-10T13:10:18.317Z,24.1
2019-04-10T13:16:50.091Z,24.2
2019-04-10T13:26:50.154Z,24.3
2019-04-10T13:36:48.220Z,24.4
2019-04-10T13:46:47.445Z,24.6
2019-04-10T13:56:47.735Z,24.7
2019-04-10T14:05:39.037Z,24.8
2019-04-10T14:15:37.225Z,24.8
2019-04-10T14:25:36.429Z,24.9
2019-04-10T14:35:35.659Z,24.9
2019-04-10T14:45:35.409Z,24.9
2019-04-10T14:55:34.055Z,24.9
2019-04-10T15:05:44.667Z,24.9
2019-04-10T15:15:32.585Z,24.6
2019-04-10T15:25:31.885Z,24.7
2019-04-10T15:35:31.174Z,24.9
2019-04-10T15:45:30.475Z,25
2019-04-10T15:55:29.978Z,25.1
2019-04-10T16:05:29.252Z,25.1
2019-04-10T16:15:29.074Z,25.1
2019-04-10T16:25:27.750Z,25.3
2019-04-10T16:35:27.358Z,25.2
2019-04-10T16:45:26.508Z,24.9
2019-04-10T16:48:15.556Z,24.9
2019-04-10T16:58:15.852Z,24.9
2019-04-10T17:08:14.102Z,24.7
2019-04-10T17:18:13.205Z,24.5
2019-04-10T17:28:12.464Z,24.4
2019-04-10T17:38:12.010Z,24.4
2019-04-10T17:48:11.647Z,24.3
2019-04-10T17:58:10.180Z,24.3
2019-04-10T18:08:10.549Z,23.9
2019-04-10T18:18:08.780Z,24
2019-04-10T18:28:08.078Z,23.8
2019-04-10T18:38:07.378Z,23.8
2019-04-10T18:48:06.640Z,23.3
2019-04-10T18:58:05.848Z,23.1
2019-04-10T19:08:05.140Z,22.9
2019-04-10T19:19:10.378Z,22.9
2019-04-10T19:29:09.527Z,22.9
2019-04-10T19:39:07.990Z,22.8
2019-04-10T19:49:08.137Z,22.8
2019-04-10T19:59:06.408Z,22.8
2019-04-10T20:09:06.319Z,22.7
2019-04-10T20:19:05.465Z,22.7
2019-04-10T20:29:04.566Z,22.6
2019-04-10T20:39:03.238Z,22.6
2019-04-10T20:49:02.593Z,22.6
2019-04-10T20:59:01.636Z,22.6
2019-04-10T21:09:01.071Z,22.5
2019-04-10T21:19:00.284Z,22.5
2019-04-10T21:29:00.236Z,22.4
2019-04-10T21:38:58.481Z,22.4
2019-04-10T21:48:57.690Z,22.4
2019-04-10T21:58:56.991Z,22.4
2019-04-10T22:08:56.198Z,22.4
2019-04-10T22:18:56.137Z,22.3
2019-04-10T22:28:54.814Z,22.3
2019-04-10T22:38:53.835Z,22.3
2019-04-10T22:48:53.437Z,22.3
2019-04-10T22:58:53.225Z,22.3
2019-04-10T23:08:51.706Z,22.3
2019-04-10T23:18:51.617Z,22.2
2019-04-10T23:28:49.811Z,22.2
2019-04-10T23:38:49.976Z,22.1
2019-04-10T23:48:48.903Z,22.1
2019-04-10T23:58:47.957Z,22.1
